createdAt,value
2022-09-30T00:01:30.220Z,99302.44
2022-09-30T00:03:59.903Z,99303.66
2022-09-30T00:06:29.650Z,99308.97
2022-09-30T00:08:57.730Z,99309.16
2022-09-30T00:11:27.294Z,99304.41
2022-09-30T00:13:55.997Z,99308.31
2022-09-30T00:16:25.042Z,99314.69
2022-09-30T00:18:55.310Z,99316.31
2022-09-30T00:21:25.568Z,99308.72
2022-09-30T00:23:53.570Z,99306.88
2022-09-30T00:26:24.631Z,99311.25
2022-09-30T00:28:53.975Z,99309.19
2022-09-30T00:31:23.715Z,99305.34
2022-09-30T00:34:05.458Z,99303.19
2022-09-30T00:36:35.059Z,99309.75
2022-09-30T00:39:02.915Z,99305.22
2022-09-30T00:41:30.591Z,99302.13
2022-09-30T00:43:58.143Z,99319.16
2022-09-30T00:46:33.340Z,99320.00
2022-09-30T00:49:06.104Z,99321.84
2022-09-30T00:51:40.178Z,99326.97
2022-09-30T00:54:12.087Z,99337.34
2022-09-30T00:56:43.735Z,99338.59
2022-09-30T00:59:15.801Z,99335.88
2022-09-30T01:01:43.563Z,99339.53
2022-09-30T01:04:14.027Z,99336.25
2022-09-30T01:06:44.061Z,99332.28
2022-09-30T01:09:12.490Z,99335.78
2022-09-30T01:11:40.315Z,99333.69
2022-09-30T01:14:12.421Z,99335.06
2022-09-30T01:16:59.140Z,99335.69
2022-09-30T01:19:58.956Z,99336.47
2022-09-30T01:22:42.495Z,99330.25
2022-09-30T01:25:39.927Z,99330.38
2022-09-30T01:28:28.292Z,99342.63
2022-09-30T01:31:07.236Z,99344.91
2022-09-30T01:33:46.286Z,99344.72
2022-09-30T01:36:28.453Z,99336.19
2022-09-30T01:39:04.430Z,99341.69
2022-09-30T01:41:42.196Z,99340.69
2022-09-30T01:44:17.586Z,99341.50
2022-09-30T01:46:51.748Z,99352.28
2022-09-30T01:49:25.913Z,99347.25
2022-09-30T01:52:00.028Z,99351.06
2022-09-30T01:54:36.402Z,99354.34
2022-09-30T01:57:09.386Z,99345.09
2022-09-30T01:59:42.471Z,99352.84
2022-09-30T02:02:17.948Z,99348.25
2022-09-30T02:04:51.572Z,99351.94
2022-09-30T02:07:26.042Z,99348.34
2022-09-30T02:09:59.875Z,99347.50
2022-09-30T02:12:34.861Z,99358.28
2022-09-30T02:15:06.664Z,99357.44
2022-09-30T02:17:43.093Z,99357.84
2022-09-30T02:20:15.038Z,99356.94
2022-09-30T02:22:46.494Z,99362.63
2022-09-30T02:25:20.432Z,99360.69
2022-09-30T02:27:54.957Z,99356.78
2022-09-30T02:30:25.263Z,99362.25
2022-09-30T02:32:58.738Z,99357.78
2022-09-30T02:35:29.904Z,99367.03
2022-09-30T02:38:03.424Z,99362.78
2022-09-30T02:40:36.881Z,99361.28
2022-09-30T02:43:06.425Z,99360.50
2022-09-30T02:45:40.363Z,99365.47
2022-09-30T02:48:25.229Z,99366.41
2022-09-30T02:50:58.571Z,99367.31
2022-09-30T02:53:32.531Z,99370.63
2022-09-30T02:56:20.506Z,99376.97
2022-09-30T02:58:50.669Z,99384.94
2022-09-30T03:01:18.858Z,99389.16
2022-09-30T03:03:51.593Z,99388.06
2022-09-30T03:06:20.355Z,99398.72
2022-09-30T03:08:48.511Z,99401.50
2022-09-30T03:11:18.771Z,99404.25
2022-09-30T03:14:03.719Z,99405.50
2022-09-30T03:16:46.575Z,99399.47
2022-09-30T03:19:36.978Z,99401.84
2022-09-30T03:22:24.748Z,99407.53
2022-09-30T03:25:12.132Z,99397.63
2022-09-30T03:27:51.774Z,99399.56
2022-09-30T03:30:24.534Z,99401.28
2022-09-30T03:33:07.385Z,99408.00
2022-09-30T03:35:48.409Z,99403.31
2022-09-30T03:38:29.566Z,99394.88
2022-09-30T03:41:05.833Z,99393.69
2022-09-30T03:43:36.931Z,99404.97
2022-09-30T03:46:13.712Z,99404.31
2022-09-30T03:48:43.469Z,99414.59
2022-09-30T03:51:13.055Z,99409.47
2022-09-30T03:53:42.120Z,99408.03
2022-09-30T03:56:10.161Z,99408.56
2022-09-30T03:58:42.252Z,99415.56
2022-09-30T04:01:19.138Z,99410.06
2022-09-30T04:03:47.651Z,99412.16
2022-09-30T04:06:16.581Z,99414.81
2022-09-30T04:08:44.373Z,99421.53
2022-09-30T04:11:12.689Z,99421.53
2022-09-30T04:13:40.356Z,99428.69
2022-09-30T04:16:09.026Z,99430.41
2022-09-30T04:18:37.257Z,99433.34
2022-09-30T04:21:07.268Z,99428.13
2022-09-30T04:23:41.689Z,99434.59
2022-09-30T04:26:12.608Z,99434.59
2022-09-30T04:28:40.199Z,99445.97
2022-09-30T04:31:08.455Z,99445.97
2022-09-30T04:33:36.143Z,99443.50
2022-09-30T04:36:04.769Z,99441.03
2022-09-30T04:38:32.402Z,99447.03
2022-09-30T04:41:03.869Z,99450.06
2022-09-30T04:43:31.451Z,99453.19
2022-09-30T04:45:59.218Z,99454.84
2022-09-30T04:48:28.046Z,99451.66
2022-09-30T04:50:55.660Z,99454.31
2022-09-30T04:53:23.219Z,99460.97
2022-09-30T04:55:50.841Z,99466.03
2022-09-30T04:58:19.918Z,99463.06
2022-09-30T05:00:47.531Z,99468.09
2022-09-30T05:03:15.343Z,99473.22
2022-09-30T05:05:45.397Z,99476.94
2022-09-30T05:08:12.976Z,99472.25
2022-09-30T05:10:40.626Z,99482.03
2022-09-30T05:13:08.316Z,99475.66
2022-09-30T05:15:37.388Z,99484.03
2022-09-30T05:18:05.978Z,99488.53
2022-09-30T05:20:33.883Z,99491.66
2022-09-30T05:23:01.568Z,99495.50
2022-09-30T05:25:29.515Z,99494.13
2022-09-30T05:27:57.080Z,99499.41
2022-09-30T05:30:24.860Z,99503.84
2022-09-30T05:32:53.987Z,99503.22
2022-09-30T05:35:21.639Z,99503.66
2022-09-30T05:37:49.264Z,99506.78
2022-09-30T05:40:17.232Z,99507.28
2022-09-30T05:42:47.291Z,99517.56
2022-09-30T05:45:14.971Z,99519.25
2022-09-30T05:47:42.591Z,99527.72
2022-09-30T05:50:11.881Z,99537.09
2022-09-30T05:52:39.499Z,99542.91
2022-09-30T05:55:07.814Z,99559.44
2022-09-30T05:57:36.249Z,99565.16
2022-09-30T06:00:06.570Z,99562.47
2022-09-30T06:02:38.346Z,99577.28
2022-09-30T06:05:08.507Z,99587.00
2022-09-30T06:07:38.707Z,99584.34
2022-09-30T06:10:12.567Z,99584.69
2022-09-30T06:12:40.812Z,99589.72
2022-09-30T06:15:10.257Z,99588.03
2022-09-30T06:17:38.283Z,99587.97
2022-09-30T06:20:06.625Z,99592.25
2022-09-30T06:22:36.013Z,99590.16
2022-09-30T06:25:09.235Z,99589.00
2022-09-30T06:27:38.092Z,99597.84
2022-09-30T06:30:08.482Z,99600.81
2022-09-30T06:32:36.221Z,99599.84
2022-09-30T06:35:04.107Z,99595.09
2022-09-30T06:37:31.682Z,99587.66
2022-09-30T06:39:59.309Z,99591.69
2022-09-30T06:42:28.542Z,99584.88
2022-09-30T06:44:56.402Z,99584.31
2022-09-30T06:47:26.010Z,99581.03
2022-09-30T06:49:58.571Z,99582.03
2022-09-30T06:52:27.197Z,99574.81
2022-09-30T06:54:56.557Z,99571.78
2022-09-30T06:57:26.675Z,99566.19
2022-09-30T06:59:55.745Z,99582.69
2022-09-30T07:02:23.498Z,99578.88
2022-09-30T07:04:51.258Z,99576.19
2022-09-30T07:07:21.940Z,99580.72
2022-09-30T07:09:49.762Z,99581.38
2022-09-30T07:12:17.693Z,99584.63
2022-09-30T07:14:45.336Z,99576.25
2022-09-30T07:17:14.237Z,99577.31
2022-09-30T07:19:41.861Z,99574.16
2022-09-30T07:22:27.165Z,99581.16
2022-09-30T07:24:55.209Z,99575.16
2022-09-30T07:27:22.801Z,99579.94
2022-09-30T07:30:08.252Z,99563.84
2022-09-30T07:32:39.547Z,99568.97
2022-09-30T07:35:07.947Z,99573.88
2022-09-30T07:37:36.807Z,99584.81
2022-09-30T07:40:06.883Z,99589.25
2022-09-30T07:42:37.551Z,99592.03
2022-09-30T07:45:06.130Z,99581.06
2022-09-30T07:47:34.310Z,99585.50
2022-09-30T07:50:04.007Z,99579.97
2022-09-30T07:52:31.705Z,99592.28
2022-09-30T07:54:59.272Z,99586.22
2022-09-30T07:57:26.938Z,99594.75
2022-09-30T07:59:54.609Z,99591.81
2022-09-30T08:02:24.527Z,99599.97
2022-09-30T08:04:52.322Z,99606.81
2022-09-30T08:07:21.284Z,99606.56
2022-09-30T08:09:49.039Z,99603.59
2022-09-30T08:12:16.663Z,99597.94
2022-09-30T08:14:45.350Z,99606.09
2022-09-30T08:17:15.738Z,99612.31
2022-09-30T08:19:44.728Z,99608.41
2022-09-30T08:22:14.184Z,99611.88
2022-09-30T08:24:43.301Z,99620.88
2022-09-30T08:27:11.292Z,99610.97
2022-09-30T08:29:56.133Z,99610.88
2022-09-30T08:32:25.136Z,99621.53
2022-09-30T08:34:52.721Z,99621.38
2022-09-30T08:37:20.289Z,99620.22
2022-09-30T08:39:49.509Z,99625.63
2022-09-30T08:42:43.745Z,99632.06
2022-09-30T08:45:27.103Z,99627.88
2022-09-30T08:48:06.443Z,99631.53
2022-09-30T08:50:45.059Z,99635.16
2022-09-30T08:53:17.223Z,99628.88
2022-09-30T08:55:47.402Z,99630.41
2022-09-30T08:58:25.321Z,99620.84
2022-09-30T09:00:58.122Z,99627.94
2022-09-30T09:03:29.397Z,99625.84
2022-09-30T09:06:05.135Z,99614.97
2022-09-30T09:08:49.166Z,99623.16
2022-09-30T09:11:33.878Z,99619.44
2022-09-30T09:14:08.116Z,99627.06
2022-09-30T09:16:41.946Z,99628.84
2022-09-30T09:19:11.778Z,99631.47
2022-09-30T09:21:51.467Z,99628.31
2022-09-30T09:24:22.082Z,99626.63
2022-09-30T09:26:53.949Z,99624.91
2022-09-30T09:29:39.593Z,99632.31
2022-09-30T09:32:14.214Z,99625.34
2022-09-30T09:34:42.977Z,99633.72
2022-09-30T09:37:22.149Z,99623.00
2022-09-30T09:40:04.598Z,99627.84
2022-09-30T09:42:47.621Z,99629.50
2022-09-30T09:45:27.495Z,99627.78
2022-09-30T09:47:57.200Z,99632.19
2022-09-30T09:50:28.850Z,99633.19
2022-09-30T09:53:22.076Z,99636.09
2022-09-30T09:55:50.881Z,99641.22
2022-09-30T09:58:20.782Z,99632.34
2022-09-30T10:01:28.589Z,99636.63
2022-09-30T10:04:12.483Z,99635.88
2022-09-30T10:06:45.160Z,99637.63
2022-09-30T10:09:28.325Z,99638.56
2022-09-30T10:12:26.865Z,99643.34
2022-09-30T10:15:01.301Z,99641.84
2022-09-30T10:17:30.636Z,99640.31
2022-09-30T10:20:08.635Z,99631.41
2022-09-30T10:22:37.767Z,99632.47
2022-09-30T10:25:19.443Z,99629.88
2022-09-30T10:27:53.713Z,99624.47
2022-09-30T10:30:42.837Z,99627.63
2022-09-30T10:33:17.389Z,99623.66
2022-09-30T10:35:54.237Z,99620.97
2022-09-30T10:38:22.492Z,99621.41
2022-09-30T10:40:52.034Z,99622.00
2022-09-30T10:43:29.979Z,99614.94
2022-09-30T10:46:24.529Z,99616.88
2022-09-30T10:48:54.249Z,99626.13
2022-09-30T10:51:31.398Z,99617.47
2022-09-30T10:53:59.306Z,99614.41
2022-09-30T10:56:43.941Z,99614.78
2022-09-30T10:59:19.891Z,99609.50
2022-09-30T11:01:57.467Z,99611.72
2022-09-30T11:04:34.990Z,99606.91
2022-09-30T11:07:13.480Z,99603.34
2022-09-30T11:09:49.825Z,99598.06
2022-09-30T11:12:24.468Z,99600.50
2022-09-30T11:15:03.216Z,99597.84
2022-09-30T11:17:37.921Z,99594.13
2022-09-30T11:20:15.352Z,99593.28
2022-09-30T11:22:49.654Z,99588.84
2022-09-30T11:25:24.852Z,99591.47
2022-09-30T11:28:16.731Z,99591.25
2022-09-30T11:30:53.397Z,99582.28
2022-09-30T11:33:41.090Z,99590.44
2022-09-30T11:36:18.655Z,99594.81
2022-09-30T11:39:05.107Z,99590.44
2022-09-30T11:41:36.829Z,99586.69
2022-09-30T11:44:19.418Z,99589.22
2022-09-30T11:47:22.742Z,99589.06
2022-09-30T11:50:07.913Z,99585.69
2022-09-30T11:52:46.516Z,99591.63
2022-09-30T11:55:36.804Z,99590.91
2022-09-30T11:58:28.590Z,99598.69
2022-09-30T12:01:10.028Z,99587.81
2022-09-30T12:03:42.914Z,99587.75
2022-09-30T12:06:26.420Z,99589.72
2022-09-30T12:08:59.722Z,99586.34
2022-09-30T12:11:35.533Z,99590.72
2022-09-30T12:14:08.586Z,99587.13
2022-09-30T12:16:38.867Z,99589.97
2022-09-30T12:19:16.202Z,99590.31
2022-09-30T12:21:54.156Z,99577.84
2022-09-30T12:24:30.679Z,99581.97
2022-09-30T12:26:59.513Z,99585.56
2022-09-30T12:29:50.625Z,99578.50
2022-09-30T12:32:44.955Z,99579.19
2022-09-30T12:35:36.449Z,99576.16
2022-09-30T12:38:21.900Z,99581.34
2022-09-30T12:41:03.357Z,99580.41
2022-09-30T12:44:05.759Z,99592.94
2022-09-30T12:46:53.074Z,99586.88
2022-09-30T12:49:26.272Z,99577.19
2022-09-30T12:51:57.826Z,99579.66
2022-09-30T12:54:32.149Z,99594.72
2022-09-30T12:57:03.948Z,99584.44
2022-09-30T12:59:34.925Z,99586.81
2022-09-30T13:02:06.234Z,99586.03
2022-09-30T13:04:36.668Z,99587.25
2022-09-30T13:07:22.874Z,99589.66
2022-09-30T13:10:26.518Z,99585.38
2022-09-30T13:13:17.834Z,99587.72
2022-09-30T13:15:46.226Z,99582.41
2022-09-30T13:18:51.574Z,99583.81
2022-09-30T13:21:22.946Z,99575.50
2022-09-30T13:23:51.905Z,99573.38
2022-09-30T13:26:41.613Z,99567.81
2022-09-30T13:29:39.193Z,99573.16
2022-09-30T13:32:09.324Z,99570.19
2022-09-30T13:34:55.959Z,99574.19
2022-09-30T13:37:39.392Z,99573.53
2022-09-30T13:40:17.794Z,99583.81
2022-09-30T13:42:54.635Z,99580.88
2022-09-30T13:45:36.369Z,99586.06
2022-09-30T13:48:12.482Z,99582.53
2022-09-30T13:50:46.446Z,99583.38
2022-09-30T13:53:20.485Z,99585.50
2022-09-30T13:55:53.604Z,99581.94
2022-09-30T13:58:45.731Z,99575.16
2022-09-30T14:01:26.448Z,99573.25
2022-09-30T14:04:23.384Z,99572.50
2022-09-30T14:07:06.011Z,99573.88
2022-09-30T14:09:53.469Z,99571.31
2022-09-30T14:12:46.575Z,99563.06
2022-09-30T14:15:57.297Z,99564.38
2022-09-30T14:18:47.140Z,99558.63
2022-09-30T14:21:27.998Z,99568.97
2022-09-30T14:24:01.246Z,99571.84
2022-09-30T14:26:53.427Z,99559.75
2022-09-30T14:29:29.601Z,99562.34
2022-09-30T14:31:59.855Z,99562.88
2022-09-30T14:34:31.494Z,99560.69
2022-09-30T14:36:59.459Z,99563.09
2022-09-30T14:39:30.441Z,99558.84
2022-09-30T14:42:01.961Z,99557.09
2022-09-30T14:44:33.870Z,99565.13
2022-09-30T14:47:05.868Z,99559.53
2022-09-30T14:49:37.421Z,99565.13
2022-09-30T14:52:06.578Z,99553.34
2022-09-30T14:54:34.687Z,99563.81
2022-09-30T14:57:04.451Z,99553.22
2022-09-30T14:59:34.401Z,99559.47
2022-09-30T15:02:05.814Z,99560.69
2022-09-30T15:04:36.535Z,99557.06
2022-09-30T15:07:07.151Z,99556.88
2022-09-30T15:09:37.666Z,99548.72
2022-09-30T15:12:08.234Z,99555.41
2022-09-30T15:14:46.844Z,99550.91
2022-09-30T15:17:21.059Z,99552.91
2022-09-30T15:19:50.202Z,99551.94
2022-09-30T15:22:19.473Z,99543.72
2022-09-30T15:24:48.344Z,99553.72
2022-09-30T15:27:20.851Z,99552.66
2022-09-30T15:29:55.689Z,99549.72
2022-09-30T15:32:27.844Z,99543.88
2022-09-30T15:34:58.620Z,99542.16
2022-09-30T15:37:33.180Z,99537.00
2022-09-30T15:40:20.187Z,99534.53
2022-09-30T15:42:55.691Z,99532.50
2022-09-30T15:45:35.125Z,99538.97
2022-09-30T15:48:06.726Z,99539.47
2022-09-30T15:50:42.186Z,99538.28
2022-09-30T15:53:18.232Z,99539.25
2022-09-30T15:55:50.408Z,99552.91
2022-09-30T15:58:39.424Z,99549.91
2022-09-30T16:01:15.116Z,99553.66
2022-09-30T16:03:54.272Z,99543.47
2022-09-30T16:06:26.357Z,99544.72
2022-09-30T16:08:59.079Z,99548.41
2022-09-30T16:11:30.254Z,99537.34
2022-09-30T16:14:00.395Z,99540.91
2022-09-30T16:16:32.267Z,99546.31
2022-09-30T16:19:03.036Z,99548.19
2022-09-30T16:21:44.341Z,99540.19
2022-09-30T16:24:43.278Z,99545.25
2022-09-30T16:27:29.096Z,99543.97
2022-09-30T16:29:57.616Z,99549.38
2022-09-30T16:32:26.789Z,99553.81
2022-09-30T16:34:56.248Z,99552.94
2022-09-30T16:37:24.588Z,99553.66
2022-09-30T16:39:52.408Z,99550.13
2022-09-30T16:42:20.839Z,99551.94
2022-09-30T16:44:48.581Z,99560.97
2022-09-30T16:47:17.744Z,99555.81
2022-09-30T16:49:47.304Z,99554.94
2022-09-30T16:52:17.342Z,99559.13
2022-09-30T16:54:45.044Z,99573.97
2022-09-30T16:57:14.909Z,99570.78
2022-09-30T16:59:42.971Z,99562.56
2022-09-30T17:02:15.650Z,99556.88
2022-09-30T17:04:47.171Z,99567.13
2022-09-30T17:07:16.326Z,99566.19
2022-09-30T17:09:44.841Z,99564.78
2022-09-30T17:12:14.100Z,99575.06
2022-09-30T17:14:45.209Z,99582.53
2022-09-30T17:17:13.954Z,99580.59
2022-09-30T17:19:42.103Z,99577.72
2022-09-30T17:22:09.824Z,99579.44
2022-09-30T17:24:38.752Z,99578.41
2022-09-30T17:27:07.388Z,99586.25
2022-09-30T17:29:41.692Z,99589.06
2022-09-30T17:32:10.577Z,99589.53
2022-09-30T17:34:38.393Z,99594.09
2022-09-30T17:39:40.293Z,99592.31
2022-09-30T17:42:26.167Z,99601.88
2022-09-30T17:44:54.068Z,99606.69
2022-09-30T17:47:22.340Z,99608.19
2022-09-30T17:49:50.256Z,99612.56
2022-09-30T17:52:18.107Z,99608.25
2022-09-30T17:54:52.440Z,99623.38
2022-09-30T17:57:24.218Z,99619.22
2022-09-30T17:59:51.975Z,99622.97
2022-09-30T18:02:21.211Z,99630.88
2022-09-30T18:04:49.502Z,99631.75
2022-09-30T18:07:17.161Z,99630.13
2022-09-30T18:09:44.822Z,99637.59
2022-09-30T18:12:13.870Z,99641.09
2022-09-30T18:14:43.723Z,99641.94
2022-09-30T18:17:11.395Z,99641.69
2022-09-30T18:19:39.028Z,99645.03
2022-09-30T18:22:06.768Z,99649.34
2022-09-30T18:24:51.909Z,99652.50
2022-09-30T18:27:22.654Z,99655.41
2022-09-30T18:29:50.380Z,99648.84
2022-09-30T18:32:19.355Z,99643.06
2022-09-30T18:34:47.032Z,99639.78
2022-09-30T18:37:14.689Z,99649.91
2022-09-30T18:39:42.330Z,99650.13
2022-09-30T18:42:09.915Z,99651.78
2022-09-30T18:44:40.066Z,99646.03
2022-09-30T18:47:07.942Z,99647.66
2022-09-30T18:49:35.558Z,99640.63
2022-09-30T18:52:03.229Z,99632.41
2022-09-30T18:54:32.131Z,99632.88
2022-09-30T18:56:59.919Z,99635.56
2022-09-30T18:59:27.676Z,99634.13
2022-09-30T19:01:58.444Z,99632.06
2022-09-30T19:04:26.117Z,99643.63
2022-09-30T19:06:54.037Z,99633.53
2022-09-30T19:09:24.548Z,99644.50
2022-09-30T19:11:55.511Z,99646.16
2022-09-30T19:14:24.854Z,99642.47
2022-09-30T19:16:52.663Z,99639.56
2022-09-30T19:19:23.136Z,99639.94
2022-09-30T19:21:50.988Z,99644.09
2022-09-30T19:24:18.828Z,99645.56
2022-09-30T19:26:47.916Z,99651.38
2022-09-30T19:29:16.121Z,99653.63
2022-09-30T19:31:45.221Z,99651.56
2022-09-30T19:34:17.247Z,99648.25
2022-09-30T19:36:59.681Z,99661.91
2022-09-30T19:39:38.031Z,99659.44
2022-09-30T19:42:15.012Z,99655.91
2022-09-30T19:44:42.830Z,99647.44
2022-09-30T19:47:11.052Z,99653.22
2022-09-30T19:49:38.910Z,99658.78
2022-09-30T19:52:17.122Z,99656.09
2022-09-30T19:54:48.796Z,99661.69
2022-09-30T19:57:16.401Z,99667.03
2022-09-30T19:59:45.023Z,99663.53
2022-09-30T20:02:12.863Z,99662.91
2022-09-30T20:04:43.682Z,99672.00
2022-09-30T20:07:14.905Z,99674.84
2022-09-30T20:09:43.443Z,99671.72
2022-09-30T20:12:11.264Z,99671.28
2022-09-30T20:14:56.791Z,99674.63
2022-09-30T20:17:24.413Z,99674.63
2022-09-30T20:20:06.038Z,99662.84
2022-09-30T20:22:35.127Z,99673.38
2022-09-30T20:25:03.254Z,99679.19
2022-09-30T20:27:34.090Z,99673.25
2022-09-30T20:30:03.112Z,99676.75
2022-09-30T20:32:31.100Z,99679.66
2022-09-30T20:35:00.036Z,99672.63
2022-09-30T20:37:27.646Z,99673.66
2022-09-30T20:39:57.653Z,99678.63
2022-09-30T20:42:32.714Z,99672.25
2022-09-30T20:45:01.069Z,99670.59
2022-09-30T20:47:28.708Z,99680.47
2022-09-30T20:49:59.558Z,99687.94
2022-09-30T20:52:28.830Z,99695.34
2022-09-30T20:55:01.935Z,99700.69
2022-09-30T20:57:30.897Z,99700.50
2022-09-30T20:59:59.679Z,99700.50
2022-09-30T21:02:28.839Z,99704.84
2022-09-30T21:04:58.219Z,99708.16
2022-09-30T21:07:25.935Z,99707.31
2022-09-30T21:09:53.674Z,99717.84
2022-09-30T21:12:22.850Z,99710.41
2022-09-30T21:14:50.458Z,99709.78
2022-09-30T21:17:18.299Z,99711.81
2022-09-30T21:19:46.120Z,99712.25
2022-09-30T21:22:13.688Z,99709.16
2022-09-30T21:24:41.534Z,99713.06
2022-09-30T21:27:09.672Z,99709.97
2022-09-30T21:29:38.581Z,99700.28
2022-09-30T21:32:06.422Z,99703.78
2022-09-30T21:34:34.659Z,99702.72
2022-09-30T21:37:02.859Z,99695.47
2022-09-30T21:39:30.497Z,99681.88
2022-09-30T21:41:58.372Z,99680.78
2022-09-30T21:44:26.107Z,99686.53
2022-09-30T21:46:55.170Z,99681.38
2022-09-30T21:49:24.375Z,99686.06
2022-09-30T21:51:52.824Z,99680.28
2022-09-30T21:54:20.853Z,99675.75
2022-09-30T21:56:49.333Z,99686.25
2022-09-30T21:59:17.250Z,99682.69
2022-09-30T22:01:45.276Z,99692.16
2022-09-30T22:04:14.315Z,99682.06
2022-09-30T22:06:41.897Z,99686.16
2022-09-30T22:09:10.584Z,99679.78
2022-09-30T22:11:38.628Z,99676.69
2022-09-30T22:14:06.294Z,99679.56
2022-09-30T22:16:35.727Z,99677.50
2022-09-30T22:19:05.290Z,99669.69
2022-09-30T22:21:37.810Z,99666.38
2022-09-30T22:24:07.889Z,99672.34
2022-09-30T22:26:37.085Z,99666.16
2022-09-30T22:29:06.382Z,99665.56
2022-09-30T22:31:34.822Z,99666.75
2022-09-30T22:34:23.598Z,99669.06
2022-09-30T22:37:11.254Z,99670.44
2022-09-30T22:39:38.968Z,99666.38
2022-09-30T22:42:07.215Z,99667.78
2022-09-30T22:44:36.660Z,99666.75
2022-09-30T22:47:05.186Z,99665.09
2022-09-30T22:49:33.148Z,99657.13
2022-09-30T22:52:03.640Z,99655.66
2022-09-30T22:54:31.853Z,99652.59
2022-09-30T22:56:59.997Z,99652.78
2022-09-30T22:59:28.612Z,99648.06
2022-09-30T23:01:57.038Z,99637.97
2022-09-30T23:04:26.154Z,99646.41
2022-09-30T23:06:56.069Z,99647.22
2022-09-30T23:09:25.635Z,99648.47
2022-09-30T23:11:54.881Z,99643.94
2022-09-30T23:14:23.616Z,99643.06
2022-09-30T23:16:51.785Z,99644.28
2022-09-30T23:19:19.615Z,99653.72
2022-09-30T23:21:47.232Z,99665.09
2022-09-30T23:24:15.143Z,99661.59
2022-09-30T23:26:44.439Z,99657.44
2022-09-30T23:29:14.444Z,99656.59
2022-09-30T23:31:42.965Z,99656.59
2022-09-30T23:34:10.849Z,99660.09
2022-09-30T23:36:38.964Z,99657.78
2022-09-30T23:39:09.321Z,99659.84
2022-09-30T23:41:37.336Z,99656.75
2022-09-30T23:44:06.925Z,99649.34
2022-09-30T23:46:34.576Z,99654.47
2022-09-30T23:49:02.188Z,99648.72
2022-09-30T23:51:29.913Z,99655.09
2022-09-30T23:53:57.705Z,99648.31
2022-09-30T23:56:25.369Z,99647.50
2022-09-30T23:58:53.140Z,99646.44
